sensor_id;sensor_type;location;lat;lon;timestamp;temperature;humidity
32895;DHT22;19251;49.484;8.260;2022-08-19T00:01:10;23.70;25.10
32895;DHT22;19251;49.484;8.260;2022-08-19T00:06:13;23.70;24.90
32895;DHT22;19251;49.484;8.260;2022-08-19T00:11:17;23.80;24.60
32895;DHT22;19251;49.484;8.260;2022-08-19T00:16:27;23.90;24.60
32895;DHT22;19251;49.484;8.260;2022-08-19T00:21:29;23.90;24.50
32895;DHT22;19251;49.484;8.260;2022-08-19T00:26:32;23.90;24.50
32895;DHT22;19251;49.484;8.260;2022-08-19T00:31:35;24.00;24.50
32895;DHT22;19251;49.484;8.260;2022-08-19T00:36:37;23.80;24.40
32895;DHT22;19251;49.484;8.260;2022-08-19T00:41:41;24.10;24.60
32895;DHT22;19251;49.484;8.260;2022-08-19T00:46:45;24.10;24.30
32895;DHT22;19251;49.484;8.260;2022-08-19T00:52:06;24.10;24.10
32895;DHT22;19251;49.484;8.260;2022-08-19T00:57:14;23.90;23.90
32895;DHT22;19251;49.484;8.260;2022-08-19T01:02:17;24.10;24.30
32895;DHT22;19251;49.484;8.260;2022-08-19T01:07:19;24.20;24.00
32895;DHT22;19251;49.484;8.260;2022-08-19T01:12:22;24.20;24.00
32895;DHT22;19251;49.484;8.260;2022-08-19T01:17:25;24.20;23.70
32895;DHT22;19251;49.484;8.260;2022-08-19T01:22:30;24.20;23.70
32895;DHT22;19251;49.484;8.260;2022-08-19T01:27:40;24.20;23.60
32895;DHT22;19251;49.484;8.260;2022-08-19T01:32:44;24.20;23.50
32895;DHT22;19251;49.484;8.260;2022-08-19T01:42:51;24.00;23.30
32895;DHT22;19251;49.484;8.260;2022-08-19T01:47:56;24.20;23.40
32895;DHT22;19251;49.484;8.260;2022-08-19T01:53:06;24.30;23.50
32895;DHT22;19251;49.484;8.260;2022-08-19T01:58:21;24.60;23.70
32895;DHT22;19251;49.484;8.260;2022-08-19T02:03:24;24.30;23.30
32895;DHT22;19251;49.484;8.260;2022-08-19T02:08:27;24.30;23.40
32895;DHT22;19251;49.484;8.260;2022-08-19T02:13:29;23.90;23.10
32895;DHT22;19251;49.484;8.260;2022-08-19T02:18:31;24.30;24.00
32895;DHT22;19251;49.484;8.260;2022-08-19T02:23:34;24.30;23.40
32895;DHT22;19251;49.484;8.260;2022-08-19T02:28:36;24.20;23.20
32895;DHT22;19251;49.484;8.260;2022-08-19T02:33:39;24.50;23.50
32895;DHT22;19251;49.484;8.260;2022-08-19T02:38:42;24.00;23.10
32895;DHT22;19251;49.484;8.260;2022-08-19T02:43:48;24.20;23.10
32895;DHT22;19251;49.484;8.260;2022-08-19T02:49:11;24.10;23.10
32895;DHT22;19251;49.484;8.260;2022-08-19T02:54:14;24.20;23.20
32895;DHT22;19251;49.484;8.260;2022-08-19T02:59:16;24.20;23.10
32895;DHT22;19251;49.484;8.260;2022-08-19T03:04:24;24.20;23.00
32895;DHT22;19251;49.484;8.260;2022-08-19T03:09:26;24.30;23.10
32895;DHT22;19251;49.484;8.260;2022-08-19T03:14:31;24.20;23.80
32895;DHT22;19251;49.484;8.260;2022-08-19T03:19:33;24.40;23.20
32895;DHT22;19251;49.484;8.260;2022-08-19T03:24:37;24.50;23.30
32895;DHT22;19251;49.484;8.260;2022-08-19T03:29:40;24.30;23.20
32895;DHT22;19251;49.484;8.260;2022-08-19T03:34:45;24.20;23.00
32895;DHT22;19251;49.484;8.260;2022-08-19T03:39:48;24.40;23.00
32895;DHT22;19251;49.484;8.260;2022-08-19T03:44:50;24.20;22.80
32895;DHT22;19251;49.484;8.260;2022-08-19T03:49:52;24.30;22.80
32895;DHT22;19251;49.484;8.260;2022-08-19T03:54:55;24.20;22.80
32895;DHT22;19251;49.484;8.260;2022-08-19T03:59:57;24.30;22.80
32895;DHT22;19251;49.484;8.260;2022-08-19T04:05:15;24.10;22.20
32895;DHT22;19251;49.484;8.260;2022-08-19T04:10:17;24.80;23.20
32895;DHT22;19251;49.484;8.260;2022-08-19T04:15:19;24.20;22.70
32895;DHT22;19251;49.484;8.260;2022-08-19T04:20:22;24.20;22.60
32895;DHT22;19251;49.484;8.260;2022-08-19T04:25:24;24.20;22.50
32895;DHT22;19251;49.484;8.260;2022-08-19T04:30:26;24.20;22.60
32895;DHT22;19251;49.484;8.260;2022-08-19T04:35:35;24.20;22.60
32895;DHT22;19251;49.484;8.260;2022-08-19T04:40:45;24.20;22.60
32895;DHT22;19251;49.484;8.260;2022-08-19T04:46:13;24.30;22.60
32895;DHT22;19251;49.484;8.260;2022-08-19T04:51:35;24.10;22.60
32895;DHT22;19251;49.484;8.260;2022-08-19T04:56:39;24.00;22.60
32895;DHT22;19251;49.484;8.260;2022-08-19T05:01:42;24.40;22.90
32895;DHT22;19251;49.484;8.260;2022-08-19T05:06:47;24.10;22.70
32895;DHT22;19251;49.484;8.260;2022-08-19T05:11:49;24.10;22.70
32895;DHT22;19251;49.484;8.260;2022-08-19T05:16:54;24.30;22.90
32895;DHT22;19251;49.484;8.260;2022-08-19T05:22:16;24.40;22.90
32895;DHT22;19251;49.484;8.260;2022-08-19T05:27:34;24.30;22.70
32895;DHT22;19251;49.484;8.260;2022-08-19T05:32:38;24.40;22.80
32895;DHT22;19251;49.484;8.260;2022-08-19T05:37:40;24.40;22.70
32895;DHT22;19251;49.484;8.260;2022-08-19T05:42:42;24.40;23.40
32895;DHT22;19251;49.484;8.260;2022-08-19T05:47:45;24.50;22.70
32895;DHT22;19251;49.484;8.260;2022-08-19T05:52:47;24.40;22.30
32895;DHT22;19251;49.484;8.260;2022-08-19T05:57:52;24.50;23.00
32895;DHT22;19251;49.484;8.260;2022-08-19T06:02:54;24.80;22.30
32895;DHT22;19251;49.484;8.260;2022-08-19T06:07:58;24.70;22.20
32895;DHT22;19251;49.484;8.260;2022-08-19T06:13:00;25.00;21.80
32895;DHT22;19251;49.484;8.260;2022-08-19T06:18:02;24.90;22.30
32895;DHT22;19251;49.484;8.260;2022-08-19T06:23:05;25.00;22.20
32895;DHT22;19251;49.484;8.260;2022-08-19T06:28:07;25.10;22.20
32895;DHT22;19251;49.484;8.260;2022-08-19T06:33:16;25.30;22.30
32895;DHT22;19251;49.484;8.260;2022-08-19T06:38:19;25.40;22.00
32895;DHT22;19251;49.484;8.260;2022-08-19T06:43:24;25.50;21.80
32895;DHT22;19251;49.484;8.260;2022-08-19T06:48:30;25.50;21.50
32895;DHT22;19251;49.484;8.260;2022-08-19T06:53:38;25.70;22.10
32895;DHT22;19251;49.484;8.260;2022-08-19T06:58:41;25.60;21.20
32895;DHT22;19251;49.484;8.260;2022-08-19T07:03:44;25.80;21.20
32895;DHT22;19251;49.484;8.260;2022-08-19T07:08:48;25.80;21.20
32895;DHT22;19251;49.484;8.260;2022-08-19T07:13:50;25.90;21.00
32895;DHT22;19251;49.484;8.260;2022-08-19T07:18:55;26.00;20.90
32895;DHT22;19251;49.484;8.260;2022-08-19T07:24:12;26.00;20.90
32895;DHT22;19251;49.484;8.260;2022-08-19T07:29:14;26.20;20.80
32895;DHT22;19251;49.484;8.260;2022-08-19T07:34:19;26.30;20.40
32895;DHT22;19251;49.484;8.260;2022-08-19T07:39:23;26.40;20.30
32895;DHT22;19251;49.484;8.260;2022-08-19T07:44:26;26.50;20.30
32895;DHT22;19251;49.484;8.260;2022-08-19T07:49:28;26.50;20.10
32895;DHT22;19251;49.484;8.260;2022-08-19T07:54:31;26.70;20.00
32895;DHT22;19251;49.484;8.260;2022-08-19T07:59:36;26.90;19.90
32895;DHT22;19251;49.484;8.260;2022-08-19T08:04:38;27.10;19.80
32895;DHT22;19251;49.484;8.260;2022-08-19T08:09:59;27.30;19.20
32895;DHT22;19251;49.484;8.260;2022-08-19T08:15:08;27.40;19.00
32895;DHT22;19251;49.484;8.260;2022-08-19T08:20:14;27.50;18.20
32895;DHT22;19251;49.484;8.260;2022-08-19T08:25:19;27.70;18.60
32895;DHT22;19251;49.484;8.260;2022-08-19T08:30:24;27.90;17.70
32895;DHT22;19251;49.484;8.260;2022-08-19T08:35:32;28.00;17.20
32895;DHT22;19251;49.484;8.260;2022-08-19T08:40:47;28.20;16.80
32895;DHT22;19251;49.484;8.260;2022-08-19T08:46:15;28.40;16.30
32895;DHT22;19251;49.484;8.260;2022-08-19T08:51:47;28.60;16.20
32895;DHT22;19251;49.484;8.260;2022-08-19T08:57:05;28.30;15.20
32895;DHT22;19251;49.484;8.260;2022-08-19T09:02:09;29.00;15.00
32895;DHT22;19251;49.484;8.260;2022-08-19T09:13:16;29.30;14.10
32895;DHT22;19251;49.484;8.260;2022-08-19T09:18:22;29.40;14.00
32895;DHT22;19251;49.484;8.260;2022-08-19T09:23:25;29.30;13.80
32895;DHT22;19251;49.484;8.260;2022-08-19T09:28:30;29.40;14.30
32895;DHT22;19251;49.484;8.260;2022-08-19T09:33:33;29.40;13.30
32895;DHT22;19251;49.484;8.260;2022-08-19T09:38:36;29.40;13.20
32895;DHT22;19251;49.484;8.260;2022-08-19T09:43:48;29.50;12.90
32895;DHT22;19251;49.484;8.260;2022-08-19T09:48:52;29.70;12.90
32895;DHT22;19251;49.484;8.260;2022-08-19T09:53:59;29.60;12.70
32895;DHT22;19251;49.484;8.260;2022-08-19T09:59:05;29.70;12.40
32895;DHT22;19251;49.484;8.260;2022-08-19T10:04:08;29.80;11.50
32895;DHT22;19251;49.484;8.260;2022-08-19T10:09:21;29.90;11.00
32895;DHT22;19251;49.484;8.260;2022-08-19T10:14:35;29.90;11.30
32895;DHT22;19251;49.484;8.260;2022-08-19T10:19:40;30.10;10.70
32895;DHT22;19251;49.484;8.260;2022-08-19T10:24:56;30.20;9.90
32895;DHT22;19251;49.484;8.260;2022-08-19T10:29:58;30.30;10.20
32895;DHT22;19251;49.484;8.260;2022-08-19T10:35:03;30.40;9.30
32895;DHT22;19251;49.484;8.260;2022-08-19T10:40:10;30.40;8.90
32895;DHT22;19251;49.484;8.260;2022-08-19T10:45:13;30.50;8.70
32895;DHT22;19251;49.484;8.260;2022-08-19T10:50:18;30.80;8.50
32895;DHT22;19251;49.484;8.260;2022-08-19T10:55:40;30.80;7.80
32895;DHT22;19251;49.484;8.260;2022-08-19T11:01:00;30.90;7.50
32895;DHT22;19251;49.484;8.260;2022-08-19T11:06:06;31.10;7.10
32895;DHT22;19251;49.484;8.260;2022-08-19T11:11:12;31.30;6.00
32895;DHT22;19251;49.484;8.260;2022-08-19T11:16:18;31.50;5.50
32895;DHT22;19251;49.484;8.260;2022-08-19T11:26:28;32.00;4.80
32895;DHT22;19251;49.484;8.260;2022-08-19T11:31:33;32.10;3.80
32895;DHT22;19251;49.484;8.260;2022-08-19T11:36:39;32.20;3.90
32895;DHT22;19251;49.484;8.260;2022-08-19T11:41:43;32.40;4.80
32895;DHT22;19251;49.484;8.260;2022-08-19T11:46:45;32.60;4.40
32895;DHT22;19251;49.484;8.260;2022-08-19T11:51:48;32.90;4.00
32895;DHT22;19251;49.484;8.260;2022-08-19T11:56:54;33.10;3.10
32895;DHT22;19251;49.484;8.260;2022-08-19T12:01:58;33.40;2.10
32895;DHT22;19251;49.484;8.260;2022-08-19T12:07:01;33.60;1.70
32895;DHT22;19251;49.484;8.260;2022-08-19T12:12:03;33.90;1.60
32895;DHT22;19251;49.484;8.260;2022-08-19T12:17:06;34.10;1.00
32895;DHT22;19251;49.484;8.260;2022-08-19T12:22:10;34.40;1.00
32895;DHT22;19251;49.484;8.260;2022-08-19T12:27:12;34.60;1.00
32895;DHT22;19251;49.484;8.260;2022-08-19T12:32:33;34.80;1.00
32895;DHT22;19251;49.484;8.260;2022-08-19T12:37:35;35.10;1.00
32895;DHT22;19251;49.484;8.260;2022-08-19T12:42:38;35.20;1.00
32895;DHT22;19251;49.484;8.260;2022-08-19T12:47:44;35.50;1.00
32895;DHT22;19251;49.484;8.260;2022-08-19T12:52:48;35.50;1.00
32895;DHT22;19251;49.484;8.260;2022-08-19T12:57:51;35.80;1.00
32895;DHT22;19251;49.484;8.260;2022-08-19T13:02:54;35.60;1.00
32895;DHT22;19251;49.484;8.260;2022-08-19T13:07:58;35.50;1.00
32895;DHT22;19251;49.484;8.260;2022-08-19T13:13:07;35.30;1.00
32895;DHT22;19251;49.484;8.260;2022-08-19T13:18:10;35.20;1.00
32895;DHT22;19251;49.484;8.260;2022-08-19T13:23:13;35.20;1.00
32895;DHT22;19251;49.484;8.260;2022-08-19T13:28:15;35.30;1.00
32895;DHT22;19251;49.484;8.260;2022-08-19T13:33:18;35.60;1.00
32895;DHT22;19251;49.484;8.260;2022-08-19T13:38:21;35.80;1.00
32895;DHT22;19251;49.484;8.260;2022-08-19T13:43:26;35.80;1.00
32895;DHT22;19251;49.484;8.260;2022-08-19T13:48:28;35.50;1.00
32895;DHT22;19251;49.484;8.260;2022-08-19T13:53:30;35.40;1.00
32895;DHT22;19251;49.484;8.260;2022-08-19T13:58:33;35.10;1.00
32895;DHT22;19251;49.484;8.260;2022-08-19T14:03:37;35.00;1.00
32895;DHT22;19251;49.484;8.260;2022-08-19T14:08:39;35.00;1.00
32895;DHT22;19251;49.484;8.260;2022-08-19T14:13:47;34.90;1.00
32895;DHT22;19251;49.484;8.260;2022-08-19T14:18:49;34.90;1.00
32895;DHT22;19251;49.484;8.260;2022-08-19T14:23:52;34.90;1.00
32895;DHT22;19251;49.484;8.260;2022-08-19T14:28:55;35.30;1.00
32895;DHT22;19251;49.484;8.260;2022-08-19T14:33:59;35.50;1.00
32895;DHT22;19251;49.484;8.260;2022-08-19T14:39:01;35.50;1.00
32895;DHT22;19251;49.484;8.260;2022-08-19T14:44:03;35.30;1.00
32895;DHT22;19251;49.484;8.260;2022-08-19T14:49:06;35.40;1.00
32895;DHT22;19251;49.484;8.260;2022-08-19T14:54:10;35.60;1.00
32895;DHT22;19251;49.484;8.260;2022-08-19T14:59:13;36.10;1.00
32895;DHT22;19251;49.484;8.260;2022-08-19T15:04:15;36.20;1.00
32895;DHT22;19251;49.484;8.260;2022-08-19T15:09:17;36.10;1.00
32895;DHT22;19251;49.484;8.260;2022-08-19T15:14:19;36.00;1.00
32895;DHT22;19251;49.484;8.260;2022-08-19T15:19:22;35.70;1.00
32895;DHT22;19251;49.484;8.260;2022-08-19T15:24:25;35.50;1.00
32895;DHT22;19251;49.484;8.260;2022-08-19T15:29:28;35.50;1.00
32895;DHT22;19251;49.484;8.260;2022-08-19T15:34:30;35.50;1.00
32895;DHT22;19251;49.484;8.260;2022-08-19T15:39:33;35.90;1.00
32895;DHT22;19251;49.484;8.260;2022-08-19T15:44:35;36.20;1.00
32895;DHT22;19251;49.484;8.260;2022-08-19T15:49:38;36.30;1.00
32895;DHT22;19251;49.484;8.260;2022-08-19T15:54:40;36.20;1.00
32895;DHT22;19251;49.484;8.260;2022-08-19T15:59:42;36.00;1.00
32895;DHT22;19251;49.484;8.260;2022-08-19T16:05:08;36.00;1.00
32895;DHT22;19251;49.484;8.260;2022-08-19T16:10:30;36.40;1.00
32895;DHT22;19251;49.484;8.260;2022-08-19T16:15:32;37.20;1.00
32895;DHT22;19251;49.484;8.260;2022-08-19T16:20:35;38.00;1.00
32895;DHT22;19251;49.484;8.260;2022-08-19T16:25:38;38.60;1.00
32895;DHT22;19251;49.484;8.260;2022-08-19T16:30:40;38.70;1.00
32895;DHT22;19251;49.484;8.260;2022-08-19T16:35:50;38.30;1.00
32895;DHT22;19251;49.484;8.260;2022-08-19T16:41:12;37.70;1.00
32895;DHT22;19251;49.484;8.260;2022-08-19T16:46:19;37.20;1.00
32895;DHT22;19251;49.484;8.260;2022-08-19T16:51:23;36.30;1.00
32895;DHT22;19251;49.484;8.260;2022-08-19T16:56:26;35.80;1.00
32895;DHT22;19251;49.484;8.260;2022-08-19T17:01:30;35.30;1.00
32895;DHT22;19251;49.484;8.260;2022-08-19T17:06:32;34.80;1.00
32895;DHT22;19251;49.484;8.260;2022-08-19T17:11:37;34.30;1.00
32895;DHT22;19251;49.484;8.260;2022-08-19T17:16:41;34.00;1.00
32895;DHT22;19251;49.484;8.260;2022-08-19T17:21:43;33.80;1.00
32895;DHT22;19251;49.484;8.260;2022-08-19T17:26:45;33.60;1.00
32895;DHT22;19251;49.484;8.260;2022-08-19T17:31:47;33.30;1.00
32895;DHT22;19251;49.484;8.260;2022-08-19T17:36:50;33.10;1.00
32895;DHT22;19251;49.484;8.260;2022-08-19T17:41:52;33.00;1.00
32895;DHT22;19251;49.484;8.260;2022-08-19T17:46:56;32.80;1.00
32895;DHT22;19251;49.484;8.260;2022-08-19T17:51:59;32.70;1.00
32895;DHT22;19251;49.484;8.260;2022-08-19T17:57:01;32.50;1.00
32895;DHT22;19251;49.484;8.260;2022-08-19T18:02:06;32.40;1.20
32895;DHT22;19251;49.484;8.260;2022-08-19T18:07:11;32.30;1.90
32895;DHT22;19251;49.484;8.260;2022-08-19T18:12:13;32.10;1.80
32895;DHT22;19251;49.484;8.260;2022-08-19T18:17:17;32.00;1.60
32895;DHT22;19251;49.484;8.260;2022-08-19T18:22:27;31.80;2.30
32895;DHT22;19251;49.484;8.260;2022-08-19T18:27:30;31.60;2.90
32895;DHT22;19251;49.484;8.260;2022-08-19T18:32:33;31.40;3.00
32895;DHT22;19251;49.484;8.260;2022-08-19T18:37:43;31.20;2.90
32895;DHT22;19251;49.484;8.260;2022-08-19T18:42:46;30.90;3.70
32895;DHT22;19251;49.484;8.260;2022-08-19T18:48:07;30.60;4.50
32895;DHT22;19251;49.484;8.260;2022-08-19T18:53:31;30.40;5.10
32895;DHT22;19251;49.484;8.260;2022-08-19T18:58:35;30.20;5.40
32895;DHT22;19251;49.484;8.260;2022-08-19T19:03:50;29.40;5.80
32895;DHT22;19251;49.484;8.260;2022-08-19T19:08:54;29.60;6.20
32895;DHT22;19251;49.484;8.260;2022-08-19T19:13:56;29.40;6.80
32895;DHT22;19251;49.484;8.260;2022-08-19T19:18:58;29.10;7.30
32895;DHT22;19251;49.484;8.260;2022-08-19T19:24:01;28.90;6.90
32895;DHT22;19251;49.484;8.260;2022-08-19T19:29:03;28.60;7.90
32895;DHT22;19251;49.484;8.260;2022-08-19T19:34:06;28.40;8.70
32895;DHT22;19251;49.484;8.260;2022-08-19T19:39:28;28.20;8.40
32895;DHT22;19251;49.484;8.260;2022-08-19T19:44:49;27.90;9.40
32895;DHT22;19251;49.484;8.260;2022-08-19T19:49:51;27.70;9.60
32895;DHT22;19251;49.484;8.260;2022-08-19T19:55:15;27.50;9.80
32895;DHT22;19251;49.484;8.260;2022-08-19T20:00:21;26.80;9.60
32895;DHT22;19251;49.484;8.260;2022-08-19T20:05:24;27.00;10.00
32895;DHT22;19251;49.484;8.260;2022-08-19T20:10:26;26.80;10.40
32895;DHT22;19251;49.484;8.260;2022-08-19T20:15:30;26.40;10.60
32895;DHT22;19251;49.484;8.260;2022-08-19T20:20:33;26.40;10.90
32895;DHT22;19251;49.484;8.260;2022-08-19T20:25:37;26.20;11.10
32895;DHT22;19251;49.484;8.260;2022-08-19T20:30:40;26.00;11.50
32895;DHT22;19251;49.484;8.260;2022-08-19T20:35:49;25.80;11.80
32895;DHT22;19251;49.484;8.260;2022-08-19T20:40:51;25.50;11.80
32895;DHT22;19251;49.484;8.260;2022-08-19T20:45:53;25.60;12.50
32895;DHT22;19251;49.484;8.260;2022-08-19T20:50:57;25.00;11.80
32895;DHT22;19251;49.484;8.260;2022-08-19T20:55:59;25.20;12.70
32895;DHT22;19251;49.484;8.260;2022-08-19T21:01:02;25.20;12.70
32895;DHT22;19251;49.484;8.260;2022-08-19T21:06:05;24.80;13.00
32895;DHT22;19251;49.484;8.260;2022-08-19T21:11:11;24.70;13.50
32895;DHT22;19251;49.484;8.260;2022-08-19T21:16:21;24.80;14.10
32895;DHT22;19251;49.484;8.260;2022-08-19T21:21:24;24.60;14.20
32895;DHT22;19251;49.484;8.260;2022-08-19T21:26:26;24.50;15.40
32895;DHT22;19251;49.484;8.260;2022-08-19T21:31:28;24.40;14.90
32895;DHT22;19251;49.484;8.260;2022-08-19T21:36:30;24.30;14.60
32895;DHT22;19251;49.484;8.260;2022-08-19T21:41:33;24.20;15.30
32895;DHT22;19251;49.484;8.260;2022-08-19T21:46:35;24.10;15.70
32895;DHT22;19251;49.484;8.260;2022-08-19T21:51:38;24.00;15.90
32895;DHT22;19251;49.484;8.260;2022-08-19T21:56:41;23.90;16.10
32895;DHT22;19251;49.484;8.260;2022-08-19T22:01:43;23.80;16.30
32895;DHT22;19251;49.484;8.260;2022-08-19T22:06:53;23.50;15.80
32895;DHT22;19251;49.484;8.260;2022-08-19T22:11:55;23.70;16.60
32895;DHT22;19251;49.484;8.260;2022-08-19T22:16:59;23.70;16.90
32895;DHT22;19251;49.484;8.260;2022-08-19T22:22:02;23.50;17.00
32895;DHT22;19251;49.484;8.260;2022-08-19T22:27:04;23.30;17.00
32895;DHT22;19251;49.484;8.260;2022-08-19T22:32:09;23.50;17.40
32895;DHT22;19251;49.484;8.260;2022-08-19T22:37:29;23.40;17.60
32895;DHT22;19251;49.484;8.260;2022-08-19T22:42:32;23.40;17.90
32895;DHT22;19251;49.484;8.260;2022-08-19T22:47:36;23.00;17.80
32895;DHT22;19251;49.484;8.260;2022-08-19T22:52:40;23.30;18.40
32895;DHT22;19251;49.484;8.260;2022-08-19T22:57:54;23.00;18.40
32895;DHT22;19251;49.484;8.260;2022-08-19T23:02:57;23.30;18.70
32895;DHT22;19251;49.484;8.260;2022-08-19T23:07:59;23.10;18.70
32895;DHT22;19251;49.484;8.260;2022-08-19T23:13:01;23.00;18.50
32895;DHT22;19251;49.484;8.260;2022-08-19T23:18:04;23.10;19.20
32895;DHT22;19251;49.484;8.260;2022-08-19T23:23:08;22.90;19.30
32895;DHT22;19251;49.484;8.260;2022-08-19T23:28:12;22.90;19.70
32895;DHT22;19251;49.484;8.260;2022-08-19T23:33:40;22.80;19.80
32895;DHT22;19251;49.484;8.260;2022-08-19T23:38:53;22.90;20.30
32895;DHT22;19251;49.484;8.260;2022-08-19T23:43:56;22.50;20.10
32895;DHT22;19251;49.484;8.260;2022-08-19T23:49:01;22.70;20.70
32895;DHT22;19251;49.484;8.260;2022-08-19T23:54:03;22.60;20.80
32895;DHT22;19251;49.484;8.260;2022-08-19T23:59:05;22.60;20.90
